createdAt,value
2019-03-21T00:01:18.135Z,102232.09
2019-03-21T00:03:50.596Z,102223.95
2019-03-21T00:06:21.094Z,102227.55
2019-03-21T00:08:52.049Z,102227.19
2019-03-21T00:11:55.023Z,102220.64
2019-03-21T00:14:43.573Z,102221.33
2019-03-21T00:17:22.999Z,102219.33
2019-03-21T00:19:53.569Z,102229.73
2019-03-21T00:22:24.422Z,102226.78
2019-03-21T00:24:55.178Z,102224.77
2019-03-21T00:27:26.242Z,102226.05
2019-03-21T00:29:56.872Z,102219.69
2019-03-21T00:32:27.625Z,102221.89
2019-03-21T00:34:58.296Z,102218.22
2019-03-21T00:37:29.135Z,102225.74
2019-03-21T00:40:00.908Z,102216.20
2019-03-21T00:42:31.478Z,102217.77
2019-03-21T00:45:02.231Z,102221.20
2019-03-21T00:47:32.987Z,102217.16
2019-03-21T00:50:04.556Z,102209.64
2019-03-21T00:52:36.129Z,102222.53
2019-03-21T00:55:10.055Z,102215.64
2019-03-21T00:57:40.500Z,102223.00
2019-03-21T01:00:20.607Z,102216.67
2019-03-21T01:02:51.916Z,102218.64
2019-03-21T01:05:22.579Z,102217.29
2019-03-21T01:07:53.435Z,102217.59
2019-03-21T01:10:27.161Z,102218.38
2019-03-21T01:12:58.066Z,102206.91
2019-03-21T01:15:28.849Z,102217.05
2019-03-21T01:17:59.725Z,102219.20
2019-03-21T01:20:30.482Z,102217.50
2019-03-21T01:23:01.419Z,102221.25
2019-03-21T01:25:39.758Z,102223.63
2019-03-21T01:28:10.600Z,102221.06
2019-03-21T01:30:41.266Z,102217.54
2019-03-21T01:33:12.124Z,102209.13
2019-03-21T01:35:43.474Z,102213.20
2019-03-21T01:38:13.940Z,102209.72
2019-03-21T01:40:53.606Z,102213.23
2019-03-21T01:43:24.448Z,102211.75
2019-03-21T01:45:55.200Z,102214.19
2019-03-21T01:48:26.262Z,102222.05
2019-03-21T01:50:57.115Z,102219.38
2019-03-21T01:53:27.869Z,102219.41
2019-03-21T01:55:58.636Z,102219.30
2019-03-21T01:58:29.478Z,102218.39
2019-03-21T02:01:01.443Z,102221.36
2019-03-21T02:03:32.198Z,102224.09
2019-03-21T02:06:03.587Z,102217.98
2019-03-21T02:08:34.418Z,102219.20
2019-03-21T02:11:05.295Z,102221.17
2019-03-21T02:13:35.945Z,102225.53
2019-03-21T02:16:07.928Z,102226.16
2019-03-21T02:18:38.477Z,102234.98
2019-03-21T02:21:09.333Z,102223.89
2019-03-21T02:23:40.088Z,102228.41
2019-03-21T02:26:11.352Z,102223.98
2019-03-21T02:28:42.208Z,102229.13
2019-03-21T02:31:13.148Z,102224.10
2019-03-21T02:36:16.724Z,102221.67
2019-03-21T02:38:47.580Z,102218.80
2019-03-21T02:41:18.335Z,102217.05
2019-03-21T02:43:49.504Z,102222.22
2019-03-21T02:46:20.352Z,102227.00
2019-03-21T02:48:52.232Z,102225.50
2019-03-21T02:51:24.420Z,102230.39
2019-03-21T02:53:55.069Z,102223.54
2019-03-21T02:56:26.743Z,102224.45
2019-03-21T02:58:57.410Z,102224.53
2019-03-21T03:01:29.259Z,102215.72
2019-03-21T03:04:00.037Z,102227.72
2019-03-21T03:06:31.507Z,102229.16
2019-03-21T03:09:02.359Z,102230.41
2019-03-21T03:11:33.094Z,102222.34
2019-03-21T03:14:04.632Z,102230.45
2019-03-21T03:16:35.329Z,102220.55
2019-03-21T03:19:06.087Z,102225.50
2019-03-21T03:21:36.840Z,102226.48
2019-03-21T03:24:07.492Z,102222.82
2019-03-21T03:26:38.450Z,102224.67
2019-03-21T03:29:09.289Z,102224.73
2019-03-21T03:31:40.042Z,102234.59
2019-03-21T03:34:10.814Z,102234.25
2019-03-21T03:36:41.670Z,102236.29
2019-03-21T03:39:12.412Z,102233.20
2019-03-21T03:41:43.381Z,102229.14
2019-03-21T03:44:14.117Z,102241.98
2019-03-21T03:46:44.769Z,102236.91
2019-03-21T03:49:15.626Z,102235.35
2019-03-21T03:51:46.397Z,102240.07
2019-03-21T03:54:17.242Z,102241.86
2019-03-21T03:56:48.109Z,102247.73
2019-03-21T03:59:18.843Z,102252.25
2019-03-21T04:01:50.661Z,102253.81
2019-03-21T04:04:21.375Z,102252.48
2019-03-21T04:06:52.131Z,102257.75
2019-03-21T04:09:22.800Z,102252.44
2019-03-21T04:11:53.638Z,102264.77
2019-03-21T04:14:24.699Z,102264.81
2019-03-21T04:16:54.663Z,102258.33
2019-03-21T04:19:25.186Z,102259.83
2019-03-21T04:21:55.154Z,102263.50
2019-03-21T04:24:25.669Z,102275.52
2019-03-21T04:26:56.643Z,102270.58
2019-03-21T04:29:28.400Z,102272.22
2019-03-21T04:31:59.382Z,102265.42
2019-03-21T04:34:30.422Z,102274.17
2019-03-21T04:37:01.191Z,102282.52
2019-03-21T04:39:32.048Z,102266.87
2019-03-21T04:42:03.109Z,102277.55
2019-03-21T04:44:33.760Z,102272.16
2019-03-21T04:47:05.025Z,102282.35
2019-03-21T04:49:35.685Z,102280.30
2019-03-21T04:52:05.735Z,102280.57
2019-03-21T04:54:36.245Z,102280.20
2019-03-21T04:57:06.916Z,102276.23
2019-03-21T04:59:37.771Z,102277.82
2019-03-21T05:02:09.433Z,102271.85
2019-03-21T05:04:41.415Z,102275.02
2019-03-21T05:07:11.855Z,102278.79
2019-03-21T05:09:42.628Z,102276.86
2019-03-21T05:12:13.383Z,102276.70
2019-03-21T05:14:44.034Z,102275.14
2019-03-21T05:17:15.489Z,102273.86
2019-03-21T05:19:45.551Z,102274.81
2019-03-21T05:22:16.074Z,102276.38
2019-03-21T05:24:46.741Z,102283.48
2019-03-21T05:27:17.598Z,102280.59
2019-03-21T05:29:48.452Z,102278.03
2019-03-21T05:32:20.232Z,102281.66
2019-03-21T05:34:50.659Z,102283.30
2019-03-21T05:37:21.433Z,102287.56
2019-03-21T05:39:52.085Z,102290.49
2019-03-21T05:42:23.144Z,102291.09
2019-03-21T05:44:53.897Z,102285.30
2019-03-21T05:47:24.531Z,102288.05
2019-03-21T05:49:55.387Z,102285.57
2019-03-21T05:52:26.245Z,102290.48
2019-03-21T05:55:13.075Z,102291.13
2019-03-21T05:57:45.360Z,102282.94
2019-03-21T06:00:19.284Z,102286.38
2019-03-21T06:02:51.061Z,102287.77
2019-03-21T06:05:21.693Z,102286.11
2019-03-21T06:08:01.668Z,102278.97
2019-03-21T06:10:32.523Z,102280.43
2019-03-21T06:13:03.156Z,102278.45
2019-03-21T06:15:34.659Z,102280.25
2019-03-21T06:18:38.330Z,102276.02
2019-03-21T06:21:23.913Z,102273.86
2019-03-21T06:24:16.147Z,102260.62
2019-03-21T06:27:02.034Z,102270.57
2019-03-21T06:29:32.790Z,102265.09
2019-03-21T06:32:03.627Z,102263.23
2019-03-21T06:34:34.500Z,102259.11
2019-03-21T06:37:05.460Z,102254.89
2019-03-21T06:39:36.218Z,102242.64
2019-03-21T06:42:06.966Z,102240.70
2019-03-21T06:44:37.825Z,102243.24
2019-03-21T06:47:08.578Z,102237.49
2019-03-21T06:49:39.232Z,102244.70
2019-03-21T06:52:10.068Z,102240.47
2019-03-21T06:54:40.839Z,102241.66
2019-03-21T06:57:11.593Z,102240.22
2019-03-21T06:59:42.246Z,102240.28
2019-03-21T07:02:13.001Z,102245.05
2019-03-21T07:04:44.775Z,102238.13
2019-03-21T07:07:15.614Z,102237.22
2019-03-21T07:09:46.390Z,102236.08
2019-03-21T07:12:17.034Z,102235.33
2019-03-21T07:14:53.618Z,102227.98
2019-03-21T07:17:24.273Z,102232.61
2019-03-21T07:19:55.024Z,102228.41
2019-03-21T07:22:25.766Z,102227.41
2019-03-21T07:24:56.327Z,102216.46
2019-03-21T07:27:26.282Z,102221.66
2019-03-21T07:29:56.812Z,102218.41
2019-03-21T07:32:33.246Z,102220.15
2019-03-21T07:34:59.648Z,102226.20
2019-03-21T07:37:30.302Z,102216.81
2019-03-21T07:40:01.057Z,102211.69
2019-03-21T07:42:31.811Z,102209.70
2019-03-21T07:45:02.463Z,102208.85
2019-03-21T07:47:33.302Z,102216.00
2019-03-21T07:50:04.686Z,102211.17
2019-03-21T07:52:35.335Z,102210.28
2019-03-21T07:55:07.565Z,102209.73
2019-03-21T07:57:37.975Z,102210.09
2019-03-21T08:00:18.955Z,102210.42
2019-03-21T08:02:49.489Z,102202.55
2019-03-21T08:05:21.178Z,102206.87
2019-03-21T08:07:51.929Z,102207.00
2019-03-21T08:10:22.584Z,102204.84
2019-03-21T08:12:53.419Z,102203.70
2019-03-21T08:15:24.171Z,102201.62
2019-03-21T08:17:56.461Z,102191.89
2019-03-21T08:20:27.136Z,102188.30
2019-03-21T08:22:57.990Z,102190.39
2019-03-21T08:25:28.845Z,102191.17
2019-03-21T08:27:59.596Z,102189.97
2019-03-21T08:30:33.112Z,102177.97
2019-03-21T08:33:04.071Z,102182.91
2019-03-21T08:35:34.809Z,102181.03
2019-03-21T08:38:05.579Z,102175.50
2019-03-21T08:40:36.228Z,102171.80
2019-03-21T08:43:07.086Z,102169.17
2019-03-21T08:45:37.943Z,102176.27
2019-03-21T08:48:08.697Z,102172.55
2019-03-21T08:50:39.348Z,102166.04
2019-03-21T08:53:10.205Z,102140.95
2019-03-21T08:55:40.957Z,102166.66
2019-03-21T08:58:11.714Z,102155.23
2019-03-21T09:00:42.363Z,102160.81
2019-03-21T09:03:12.897Z,102152.81
2019-03-21T09:05:44.670Z,102156.19
2019-03-21T09:08:15.531Z,102150.84
2019-03-21T09:10:46.181Z,102145.84
2019-03-21T09:13:16.935Z,102137.72
2019-03-21T09:15:47.808Z,102132.33
2019-03-21T09:18:18.663Z,102132.63
2019-03-21T09:20:49.416Z,102129.93
2019-03-21T09:23:20.052Z,102132.80
2019-03-21T09:25:51.403Z,102121.91
2019-03-21T09:28:22.189Z,102124.80
2019-03-21T09:30:53.048Z,102126.11
2019-03-21T09:33:24.003Z,102124.25
2019-03-21T09:35:54.656Z,102125.95
2019-03-21T09:38:25.492Z,102124.06
2019-03-21T09:40:56.249Z,102109.92
2019-03-21T09:43:27.021Z,102127.31
2019-03-21T09:45:57.674Z,102126.55
2019-03-21T09:48:28.510Z,102102.39
2019-03-21T09:50:59.280Z,102117.77
2019-03-21T09:53:30.035Z,102124.36
2019-03-21T09:56:01.297Z,102123.09
2019-03-21T09:58:32.258Z,102125.27
2019-03-21T10:01:02.793Z,102109.96
2019-03-21T10:03:33.665Z,102122.08
2019-03-21T10:06:05.344Z,102115.86
2019-03-21T10:08:36.196Z,102107.52
2019-03-21T10:11:06.950Z,102107.61
2019-03-21T10:13:37.608Z,102100.50
2019-03-21T10:16:08.457Z,102093.91
2019-03-21T10:18:39.192Z,102085.10
2019-03-21T10:21:09.965Z,102086.45
2019-03-21T10:23:40.598Z,102079.29
2019-03-21T10:26:11.371Z,102077.73
2019-03-21T10:28:42.123Z,102074.91
2019-03-21T10:31:12.876Z,102068.22
2019-03-21T10:33:43.633Z,102049.41
2019-03-21T10:36:16.067Z,102068.17
2019-03-21T10:38:46.881Z,102061.44
2019-03-21T10:41:17.532Z,102044.38
2019-03-21T10:43:48.386Z,102050.28
2019-03-21T10:46:19.122Z,102041.39
2019-03-21T10:48:49.894Z,102032.08
2019-03-21T10:51:20.528Z,102019.85
2019-03-21T10:53:51.401Z,102011.17
2019-03-21T10:56:22.155Z,102017.34
2019-03-21T10:58:52.911Z,102011.91
2019-03-21T11:01:23.539Z,102014.86
2019-03-21T11:03:54.416Z,102007.34
2019-03-21T11:06:26.091Z,102003.08
2019-03-21T11:08:56.946Z,102009.52
2019-03-21T11:11:27.702Z,102004.25
2019-03-21T11:13:58.338Z,101992.80
2019-03-21T11:16:31.400Z,101994.02
2019-03-21T11:19:01.600Z,101993.80
2019-03-21T11:21:32.352Z,101988.02
2019-03-21T11:24:03.211Z,101979.30
2019-03-21T11:26:33.943Z,101976.47
2019-03-21T11:29:04.717Z,101972.58
2019-03-21T11:31:35.370Z,101971.07
2019-03-21T11:34:06.309Z,101977.92
2019-03-21T11:36:38.647Z,101965.94
2019-03-21T11:39:09.370Z,101960.92
2019-03-21T11:41:40.026Z,101969.29
2019-03-21T11:44:10.883Z,101954.31
2019-03-21T11:46:41.631Z,101961.84
2019-03-21T11:49:13.002Z,101958.02
2019-03-21T11:51:43.765Z,101967.91
2019-03-21T11:54:14.489Z,101955.80
2019-03-21T11:56:45.051Z,101949.30
2019-03-21T11:59:15.893Z,101952.30
2019-03-21T12:01:48.199Z,101954.15
2019-03-21T12:04:18.952Z,101957.27
2019-03-21T12:06:50.523Z,101948.98
2019-03-21T12:09:20.977Z,101957.02
2019-03-21T12:11:51.606Z,101940.20
2019-03-21T12:14:22.479Z,101949.63
2019-03-21T12:16:53.336Z,101942.68
2019-03-21T12:19:24.091Z,101945.90
2019-03-21T12:21:54.622Z,101945.94
2019-03-21T12:24:25.484Z,101936.80
2019-03-21T12:26:56.250Z,101938.03
2019-03-21T12:29:26.985Z,101942.58
2019-03-21T12:31:57.346Z,101941.45
2019-03-21T12:34:28.113Z,101926.38
2019-03-21T12:36:58.841Z,101930.55
2019-03-21T12:39:29.610Z,101924.11
2019-03-21T12:42:00.364Z,101920.25
2019-03-21T12:44:31.221Z,101921.17
2019-03-21T12:47:02.078Z,101919.63
2019-03-21T12:49:32.816Z,101920.73
2019-03-21T12:52:03.483Z,101924.54
2019-03-21T12:54:34.338Z,101909.33
2019-03-21T12:57:04.970Z,101889.52
2019-03-21T12:59:35.742Z,101882.19
2019-03-21T13:02:06.397Z,101894.53
2019-03-21T13:04:37.250Z,101902.00
2019-03-21T13:07:09.029Z,101897.84
2019-03-21T13:09:39.883Z,101893.42
2019-03-21T13:12:10.520Z,101893.05
2019-03-21T13:14:40.699Z,101892.49
2019-03-21T13:17:11.224Z,101886.80
2019-03-21T13:19:41.877Z,101882.08
2019-03-21T13:22:12.615Z,101884.55
2019-03-21T13:24:43.471Z,101878.58
2019-03-21T13:27:14.736Z,101878.53
2019-03-21T13:29:45.303Z,101879.16
2019-03-21T13:32:16.054Z,101877.81
2019-03-21T13:34:46.913Z,101882.83
2019-03-21T13:37:17.769Z,101880.36
2019-03-21T13:39:48.624Z,101883.09
2019-03-21T13:42:19.378Z,101876.53
2019-03-21T13:44:50.227Z,101877.92
2019-03-21T13:47:20.987Z,101876.97
2019-03-21T13:49:51.746Z,101878.94
2019-03-21T13:52:22.598Z,101880.00
2019-03-21T13:54:53.352Z,101872.82
2019-03-21T13:57:24.108Z,101884.88
2019-03-21T13:59:54.746Z,101867.66
2019-03-21T14:02:25.493Z,101868.28
2019-03-21T14:04:56.268Z,101864.77
2019-03-21T14:07:27.921Z,101872.17
2019-03-21T14:09:58.673Z,101866.50
2019-03-21T14:12:29.223Z,101872.53
2019-03-21T14:14:59.192Z,101871.14
2019-03-21T14:17:29.715Z,101870.36
2019-03-21T14:20:00.380Z,101870.25
2019-03-21T14:22:31.115Z,101867.02
2019-03-21T14:25:01.976Z,101871.16
2019-03-21T14:27:32.744Z,101874.54
2019-03-21T14:30:04.196Z,101873.33
2019-03-21T14:32:34.556Z,101877.80
2019-03-21T14:35:07.645Z,101878.86
2019-03-21T14:37:38.011Z,101872.12
2019-03-21T14:40:13.859Z,101875.50
2019-03-21T14:42:44.294Z,101887.66
2019-03-21T14:45:17.633Z,101881.06
2019-03-21T14:47:48.069Z,101881.52
2019-03-21T14:50:18.733Z,101877.36
2019-03-21T14:52:49.593Z,101880.60
2019-03-21T14:55:20.445Z,101873.68
2019-03-21T14:57:51.198Z,101880.92
2019-03-21T15:00:21.743Z,101878.00
2019-03-21T15:02:52.604Z,101876.77
2019-03-21T15:05:23.358Z,101876.63
2019-03-21T15:07:55.032Z,101876.77
2019-03-21T15:10:25.769Z,101878.00
2019-03-21T15:12:56.440Z,101882.62
2019-03-21T15:15:27.092Z,101876.31
2019-03-21T15:17:58.787Z,101880.47
2019-03-21T15:20:29.518Z,101873.84
2019-03-21T15:23:00.382Z,101880.92
2019-03-21T15:25:31.163Z,101893.98
2019-03-21T15:28:01.984Z,101887.52
2019-03-21T15:30:32.822Z,101892.31
2019-03-21T15:33:03.598Z,101895.69
2019-03-21T15:35:34.350Z,101893.08
2019-03-21T15:38:05.102Z,101892.31
2019-03-21T15:40:35.839Z,101863.25
2019-03-21T15:43:06.609Z,101893.08
2019-03-21T15:45:37.715Z,101889.22
2019-03-21T15:48:08.430Z,101878.32
2019-03-21T15:50:38.737Z,101892.45
2019-03-21T15:53:08.593Z,101893.06
2019-03-21T15:55:38.862Z,101897.96
2019-03-21T15:58:08.665Z,101896.26
2019-03-21T16:00:52.540Z,101883.04
2019-03-21T16:06:46.679Z,101887.61
2019-03-21T16:09:18.072Z,101891.62
2019-03-21T16:11:48.526Z,101893.89
2019-03-21T16:14:20.705Z,101903.23
2019-03-21T16:16:51.210Z,101901.98
2019-03-21T16:19:22.213Z,101898.16
2019-03-21T16:21:52.972Z,101909.10
2019-03-21T16:24:23.717Z,101911.27
2019-03-21T16:26:54.352Z,101907.73
2019-03-21T16:29:25.234Z,101912.19
2019-03-21T16:31:56.083Z,101902.36
2019-03-21T16:34:26.732Z,101913.42
2019-03-21T16:36:57.589Z,101915.25
2019-03-21T16:39:28.454Z,101921.11
2019-03-21T16:42:02.364Z,101918.34
2019-03-21T16:44:33.040Z,101915.73
2019-03-21T16:47:05.400Z,101919.55
2019-03-21T16:49:35.842Z,101927.06
2019-03-21T16:52:07.229Z,101924.41
2019-03-21T16:54:37.778Z,101930.62
2019-03-21T16:57:08.616Z,101931.81
2019-03-21T16:59:40.953Z,101937.95
2019-03-21T17:02:12.698Z,101931.94
2019-03-21T17:04:43.307Z,101948.05
2019-03-21T17:07:13.193Z,101947.28
2019-03-21T17:09:44.331Z,101944.34
2019-03-21T17:12:15.065Z,101947.98
2019-03-21T17:14:47.931Z,101959.70
2019-03-21T17:17:20.062Z,101963.37
2019-03-21T17:19:50.462Z,101960.75
2019-03-21T17:22:22.761Z,101963.67
2019-03-21T17:24:53.137Z,101962.47
2019-03-21T17:27:24.978Z,101966.95
2019-03-21T17:29:55.313Z,101976.45
2019-03-21T17:32:25.691Z,101977.95
2019-03-21T17:34:56.255Z,101980.41
2019-03-21T17:37:25.989Z,101986.55
2019-03-21T17:39:56.088Z,101991.13
2019-03-21T17:42:26.456Z,101993.55
2019-03-21T17:44:56.725Z,101995.53
2019-03-21T17:47:27.070Z,102005.45
2019-03-21T17:49:56.954Z,102004.96
2019-03-21T17:52:27.089Z,102002.26
2019-03-21T17:54:57.414Z,102010.69
2019-03-21T17:57:34.383Z,102015.00
2019-03-21T17:59:59.121Z,102021.09
2019-03-21T18:02:29.486Z,102022.27
2019-03-21T18:04:59.816Z,102013.84
2019-03-21T18:07:30.171Z,102026.05
2019-03-21T18:10:01.799Z,102020.70
2019-03-21T18:12:32.274Z,102030.24
2019-03-21T18:15:03.230Z,102033.94
2019-03-21T18:17:33.864Z,102033.60
2019-03-21T18:20:06.216Z,102034.14
2019-03-21T18:22:36.824Z,102038.40
2019-03-21T18:25:07.764Z,102039.30
2019-03-21T18:27:38.147Z,102049.02
2019-03-21T18:30:08.672Z,102051.00
2019-03-21T18:32:39.408Z,102046.95
2019-03-21T18:35:10.081Z,102040.36
2019-03-21T18:37:42.973Z,102042.11
2019-03-21T18:40:13.735Z,102046.78
2019-03-21T18:42:44.469Z,102057.81
2019-03-21T18:45:16.640Z,102054.56
2019-03-21T18:47:47.636Z,102048.02
2019-03-21T18:50:18.804Z,102054.41
2019-03-21T18:52:50.625Z,102051.31
2019-03-21T18:55:21.513Z,102044.60
2019-03-21T18:57:52.838Z,102047.61
2019-03-21T19:00:23.571Z,102058.91
2019-03-21T19:02:54.385Z,102062.70
2019-03-21T19:05:25.264Z,102058.82
2019-03-21T19:07:54.968Z,102061.34
2019-03-21T19:10:25.201Z,102072.54
2019-03-21T19:12:55.500Z,102069.64
2019-03-21T19:15:25.915Z,102070.16
2019-03-21T19:17:56.429Z,102070.33
2019-03-21T19:20:27.110Z,102077.74
2019-03-21T19:22:59.662Z,102076.19
2019-03-21T19:25:30.164Z,102084.30
2019-03-21T19:28:01.007Z,102082.22
2019-03-21T19:30:31.776Z,102090.64
2019-03-21T19:33:02.429Z,102086.97
2019-03-21T19:35:33.287Z,102090.84
2019-03-21T19:38:04.149Z,102087.63
2019-03-21T19:40:35.200Z,102081.44
2019-03-21T19:43:05.835Z,102089.45
2019-03-21T19:45:36.383Z,102080.77
2019-03-21T19:48:07.245Z,102084.28
2019-03-21T19:50:38.010Z,102084.95
2019-03-21T19:53:07.860Z,102077.75
2019-03-21T19:55:38.496Z,102087.20
2019-03-21T19:58:09.132Z,102077.22
2019-03-21T20:00:40.005Z,102079.05
2019-03-21T20:03:10.738Z,102071.02
2019-03-21T20:05:40.709Z,102079.54
2019-03-21T20:08:11.243Z,102090.27
2019-03-21T20:10:42.114Z,102081.13
2019-03-21T20:13:12.343Z,102094.09
2019-03-21T20:15:43.096Z,102094.36
2019-03-21T20:18:13.736Z,102093.67
2019-03-21T20:20:44.603Z,102086.23
2019-03-21T20:23:15.360Z,102093.28
2019-03-21T20:25:45.993Z,102090.36
2019-03-21T20:28:16.070Z,102097.41
2019-03-21T20:30:46.598Z,102090.45
2019-03-21T20:33:17.247Z,102096.72
2019-03-21T20:35:47.882Z,102090.63
2019-03-21T20:38:18.862Z,102093.28
2019-03-21T20:40:49.615Z,102091.77
2019-03-21T20:43:20.262Z,102088.51
2019-03-21T20:45:51.103Z,102093.34
2019-03-21T20:48:31.065Z,102082.00
2019-03-21T20:51:01.626Z,102092.72
2019-03-21T20:53:31.485Z,102090.30
2019-03-21T20:56:02.009Z,102085.33
2019-03-21T20:58:32.763Z,102087.53
2019-03-21T21:01:04.114Z,102089.34
2019-03-21T21:03:34.663Z,102090.27
2019-03-21T21:06:05.640Z,102087.16
2019-03-21T21:08:36.273Z,102090.40
2019-03-21T21:11:07.480Z,102086.18
2019-03-21T21:13:36.995Z,102082.38
2019-03-21T21:16:07.429Z,102084.48
2019-03-21T21:18:38.283Z,102083.91
2019-03-21T21:21:09.021Z,102081.93
2019-03-21T21:23:39.772Z,102076.05
2019-03-21T21:26:10.443Z,102077.42
2019-03-21T21:28:41.311Z,102073.00
2019-03-21T21:31:12.679Z,102067.69
2019-03-21T21:33:43.430Z,102069.89
2019-03-21T21:36:21.977Z,102069.19
2019-03-21T21:38:46.445Z,102066.92
2019-03-21T21:41:17.112Z,102069.41
2019-03-21T21:43:47.968Z,102071.26
2019-03-21T21:46:18.827Z,102059.97
2019-03-21T21:48:49.579Z,102064.22
2019-03-21T21:51:20.231Z,102074.27
2019-03-21T21:53:51.087Z,102064.13
2019-03-21T21:56:21.949Z,102068.66
2019-03-21T21:58:52.783Z,102073.80
2019-03-21T22:01:23.655Z,102072.88
2019-03-21T22:04:04.127Z,102071.36
2019-03-21T22:06:26.495Z,102077.14
2019-03-21T22:08:57.348Z,102066.28
2019-03-21T22:11:29.024Z,102072.17
2019-03-21T22:13:59.760Z,102064.22
2019-03-21T22:16:30.534Z,102064.80
2019-03-21T22:19:01.163Z,102065.89
2019-03-21T22:21:31.835Z,102064.62
2019-03-21T22:24:02.673Z,102059.42
2019-03-21T22:26:33.545Z,102064.09
2019-03-21T22:29:04.300Z,102063.97
2019-03-21T22:31:34.933Z,102063.19
2019-03-21T22:34:05.791Z,102063.00
2019-03-21T22:36:48.621Z,102067.05
2019-03-21T22:39:08.954Z,102064.80
2019-03-21T22:41:39.809Z,102065.86
2019-03-21T22:44:10.560Z,102058.20
2019-03-21T22:46:41.195Z,102072.73
2019-03-21T22:49:11.275Z,102071.39
2019-03-21T22:51:41.680Z,102073.86
2019-03-21T22:54:12.452Z,102065.39
2019-03-21T22:56:43.103Z,102063.27
2019-03-21T22:59:13.964Z,102071.87
2019-03-21T23:01:44.595Z,102066.02
2019-03-21T23:04:15.060Z,102069.31
2019-03-21T23:06:45.693Z,102066.59
2019-03-21T23:09:15.660Z,102068.16
2019-03-21T23:11:47.116Z,102069.28
2019-03-21T23:14:17.874Z,102065.02
2019-03-21T23:16:48.505Z,102062.52
2019-03-21T23:19:18.470Z,102065.42
2019-03-21T23:21:49.500Z,102057.77
2019-03-21T23:24:20.255Z,102059.94
2019-03-21T23:26:53.065Z,102059.54
2019-03-21T23:29:23.206Z,102058.54
2019-03-21T23:31:53.161Z,102061.03
2019-03-21T23:34:23.697Z,102066.78
2019-03-21T23:36:54.433Z,102071.97
2019-03-21T23:39:25.426Z,102066.88
2019-03-21T23:41:56.261Z,102058.91
2019-03-21T23:44:26.897Z,102053.73
2019-03-21T23:46:56.977Z,102052.30
2019-03-21T23:49:27.486Z,102062.85
2019-03-21T23:51:58.150Z,102053.78
2019-03-21T23:54:28.891Z,102054.34
2019-03-21T23:57:04.457Z,102046.94
2019-03-21T23:59:31.849Z,102041.84
